sensor_id;sensor_type;location;lat;lon;timestamp;P1;durP1;ratioP1;P2;durP2;ratioP2
41309;SDS011;27057;51.438;-0.010;2023-09-19T00:00:38;20.35;;;2.40;;
41309;SDS011;27057;51.438;-0.010;2023-09-19T00:03:08;10.50;;;2.03;;
41309;SDS011;27057;51.438;-0.010;2023-09-19T00:05:36;14.10;;;1.70;;
41309;SDS011;27057;51.438;-0.010;2023-09-19T00:08:11;11.07;;;2.30;;
41309;SDS011;27057;51.438;-0.010;2023-09-19T00:10:40;7.22;;;1.83;;
41309;SDS011;27057;51.438;-0.010;2023-09-19T00:13:09;23.50;;;2.63;;
41309;SDS011;27057;51.438;-0.010;2023-09-19T00:15:42;12.80;;;1.35;;
41309;SDS011;27057;51.438;-0.010;2023-09-19T00:18:18;26.00;;;3.00;;
41309;SDS011;27057;51.438;-0.010;2023-09-19T00:20:48;18.83;;;2.15;;
41309;SDS011;27057;51.438;-0.010;2023-09-19T00:23:16;31.77;;;3.80;;
41309;SDS011;27057;51.438;-0.010;2023-09-19T00:25:44;22.45;;;3.20;;
41309;SDS011;27057;51.438;-0.010;2023-09-19T00:28:12;19.50;;;2.67;;
41309;SDS011;27057;51.438;-0.010;2023-09-19T00:30:42;20.80;;;3.85;;
41309;SDS011;27057;51.438;-0.010;2023-09-19T00:33:11;16.23;;;2.83;;
41309;SDS011;27057;51.438;-0.010;2023-09-19T00:35:50;22.17;;;2.78;;
41309;SDS011;27057;51.438;-0.010;2023-09-19T00:38:19;24.88;;;3.67;;
41309;SDS011;27057;51.438;-0.010;2023-09-19T00:40:50;12.38;;;3.38;;
41309;SDS011;27057;51.438;-0.010;2023-09-19T00:43:20;13.35;;;2.10;;
41309;SDS011;27057;51.438;-0.010;2023-09-19T00:45:52;22.35;;;3.92;;
41309;SDS011;27057;51.438;-0.010;2023-09-19T00:48:21;27.85;;;3.38;;
41309;SDS011;27057;51.438;-0.010;2023-09-19T00:50:50;22.10;;;3.70;;
41309;SDS011;27057;51.438;-0.010;2023-09-19T00:53:19;20.23;;;3.75;;
41309;SDS011;27057;51.438;-0.010;2023-09-19T00:55:49;15.43;;;2.80;;
41309;SDS011;27057;51.438;-0.010;2023-09-19T00:58:18;23.13;;;3.33;;
41309;SDS011;27057;51.438;-0.010;2023-09-19T01:00:47;17.10;;;2.80;;
41309;SDS011;27057;51.438;-0.010;2023-09-19T01:03:16;18.90;;;2.55;;
41309;SDS011;27057;51.438;-0.010;2023-09-19T01:05:45;9.80;;;2.00;;
41309;SDS011;27057;51.438;-0.010;2023-09-19T01:08:13;24.27;;;4.82;;
41309;SDS011;27057;51.438;-0.010;2023-09-19T01:10:44;31.85;;;3.25;;
41309;SDS011;27057;51.438;-0.010;2023-09-19T01:13:23;15.98;;;2.70;;
41309;SDS011;27057;51.438;-0.010;2023-09-19T01:21:55;21.50;;;3.85;;
41309;SDS011;27057;51.438;-0.010;2023-09-19T01:30:17;20.98;;;3.92;;
41309;SDS011;27057;51.438;-0.010;2023-09-19T01:32:52;25.35;;;2.90;;
41309;SDS011;27057;51.438;-0.010;2023-09-19T01:35:19;21.85;;;2.97;;
41309;SDS011;27057;51.438;-0.010;2023-09-19T01:37:46;8.20;;;2.58;;
41309;SDS011;27057;51.438;-0.010;2023-09-19T01:40:14;17.23;;;4.50;;
41309;SDS011;27057;51.438;-0.010;2023-09-19T01:48:00;29.20;;;4.35;;
41309;SDS011;27057;51.438;-0.010;2023-09-19T01:50:42;29.85;;;4.18;;
41309;SDS011;27057;51.438;-0.010;2023-09-19T01:53:33;18.98;;;3.70;;
41309;SDS011;27057;51.438;-0.010;2023-09-19T01:56:34;24.50;;;3.20;;
41309;SDS011;27057;51.438;-0.010;2023-09-19T01:59:16;17.15;;;3.30;;
41309;SDS011;27057;51.438;-0.010;2023-09-19T02:01:48;27.73;;;3.37;;
41309;SDS011;27057;51.438;-0.010;2023-09-19T02:04:17;22.25;;;3.45;;
41309;SDS011;27057;51.438;-0.010;2023-09-19T02:06:45;25.70;;;3.38;;
41309;SDS011;27057;51.438;-0.010;2023-09-19T02:09:14;25.48;;;3.92;;
41309;SDS011;27057;51.438;-0.010;2023-09-19T02:11:42;19.13;;;3.78;;
41309;SDS011;27057;51.438;-0.010;2023-09-19T02:14:10;27.67;;;3.75;;
41309;SDS011;27057;51.438;-0.010;2023-09-19T02:16:37;26.50;;;4.00;;
41309;SDS011;27057;51.438;-0.010;2023-09-19T02:19:04;19.77;;;3.25;;
41309;SDS011;27057;51.438;-0.010;2023-09-19T02:21:32;22.48;;;2.97;;
41309;SDS011;27057;51.438;-0.010;2023-09-19T02:24:00;26.17;;;3.47;;
41309;SDS011;27057;51.438;-0.010;2023-09-19T02:26:27;19.30;;;3.08;;
41309;SDS011;27057;51.438;-0.010;2023-09-19T02:28:55;16.70;;;3.22;;
41309;SDS011;27057;51.438;-0.010;2023-09-19T02:31:22;24.15;;;3.40;;
41309;SDS011;27057;51.438;-0.010;2023-09-19T02:33:50;17.30;;;3.58;;
41309;SDS011;27057;51.438;-0.010;2023-09-19T02:36:17;22.10;;;3.45;;
41309;SDS011;27057;51.438;-0.010;2023-09-19T02:38:44;16.95;;;3.30;;
41309;SDS011;27057;51.438;-0.010;2023-09-19T02:41:12;13.77;;;2.38;;
41309;SDS011;27057;51.438;-0.010;2023-09-19T02:43:39;23.58;;;3.80;;
41309;SDS011;27057;51.438;-0.010;2023-09-19T02:46:07;23.75;;;3.88;;
41309;SDS011;27057;51.438;-0.010;2023-09-19T02:48:34;23.65;;;3.33;;
41309;SDS011;27057;51.438;-0.010;2023-09-19T02:51:02;26.30;;;4.43;;
41309;SDS011;27057;51.438;-0.010;2023-09-19T02:53:30;17.80;;;3.42;;
41309;SDS011;27057;51.438;-0.010;2023-09-19T02:55:58;19.65;;;3.53;;
41309;SDS011;27057;51.438;-0.010;2023-09-19T02:58:26;15.95;;;2.53;;
41309;SDS011;27057;51.438;-0.010;2023-09-19T03:00:55;22.85;;;4.05;;
41309;SDS011;27057;51.438;-0.010;2023-09-19T03:03:23;21.38;;;3.83;;
41309;SDS011;27057;51.438;-0.010;2023-09-19T03:05:51;22.55;;;3.67;;
41309;SDS011;27057;51.438;-0.010;2023-09-19T03:08:21;19.55;;;3.45;;
41309;SDS011;27057;51.438;-0.010;2023-09-19T03:10:50;13.20;;;2.40;;
41309;SDS011;27057;51.438;-0.010;2023-09-19T03:13:17;23.10;;;3.60;;
41309;SDS011;27057;51.438;-0.010;2023-09-19T03:15:45;22.10;;;2.85;;
41309;SDS011;27057;51.438;-0.010;2023-09-19T03:18:17;21.13;;;2.67;;
41309;SDS011;27057;51.438;-0.010;2023-09-19T03:20:52;19.55;;;3.03;;
41309;SDS011;27057;51.438;-0.010;2023-09-19T03:23:23;20.60;;;2.92;;
41309;SDS011;27057;51.438;-0.010;2023-09-19T03:25:50;8.07;;;1.30;;
41309;SDS011;27057;51.438;-0.010;2023-09-19T03:28:19;22.45;;;3.10;;
41309;SDS011;27057;51.438;-0.010;2023-09-19T03:30:58;27.58;;;4.22;;
41309;SDS011;27057;51.438;-0.010;2023-09-19T03:33:32;23.63;;;3.53;;
41309;SDS011;27057;51.438;-0.010;2023-09-19T03:36:01;20.38;;;2.63;;
41309;SDS011;27057;51.438;-0.010;2023-09-19T03:38:33;20.25;;;3.25;;
41309;SDS011;27057;51.438;-0.010;2023-09-19T03:41:02;19.70;;;3.08;;
41309;SDS011;27057;51.438;-0.010;2023-09-19T03:43:31;21.52;;;3.13;;
41309;SDS011;27057;51.438;-0.010;2023-09-19T03:46:02;20.40;;;2.95;;
41309;SDS011;27057;51.438;-0.010;2023-09-19T03:48:32;20.58;;;3.63;;
41309;SDS011;27057;51.438;-0.010;2023-09-19T03:51:01;18.50;;;2.90;;
41309;SDS011;27057;51.438;-0.010;2023-09-19T03:53:29;25.38;;;3.55;;
41309;SDS011;27057;51.438;-0.010;2023-09-19T03:55:56;17.27;;;3.78;;
41309;SDS011;27057;51.438;-0.010;2023-09-19T03:58:24;22.35;;;3.33;;
41309;SDS011;27057;51.438;-0.010;2023-09-19T04:00:55;25.13;;;3.80;;
41309;SDS011;27057;51.438;-0.010;2023-09-19T04:03:23;20.30;;;2.85;;
41309;SDS011;27057;51.438;-0.010;2023-09-19T04:06:01;17.15;;;2.42;;
41309;SDS011;27057;51.438;-0.010;2023-09-19T04:08:29;21.40;;;3.55;;
41309;SDS011;27057;51.438;-0.010;2023-09-19T04:10:56;25.13;;;4.07;;
41309;SDS011;27057;51.438;-0.010;2023-09-19T04:13:24;19.52;;;3.97;;
41309;SDS011;27057;51.438;-0.010;2023-09-19T04:15:52;23.85;;;3.40;;
41309;SDS011;27057;51.438;-0.010;2023-09-19T04:18:20;22.45;;;2.85;;
41309;SDS011;27057;51.438;-0.010;2023-09-19T04:20:51;15.43;;;2.58;;
41309;SDS011;27057;51.438;-0.010;2023-09-19T04:23:19;11.32;;;2.25;;
41309;SDS011;27057;51.438;-0.010;2023-09-19T04:25:47;16.88;;;2.70;;
41309;SDS011;27057;51.438;-0.010;2023-09-19T04:28:15;17.75;;;2.67;;
41309;SDS011;27057;51.438;-0.010;2023-09-19T04:30:43;17.42;;;3.00;;
41309;SDS011;27057;51.438;-0.010;2023-09-19T04:33:10;24.08;;;3.20;;
41309;SDS011;27057;51.438;-0.010;2023-09-19T04:35:41;16.90;;;2.97;;
41309;SDS011;27057;51.438;-0.010;2023-09-19T04:38:11;19.83;;;4.57;;
41309;SDS011;27057;51.438;-0.010;2023-09-19T04:40:38;23.48;;;3.45;;
41309;SDS011;27057;51.438;-0.010;2023-09-19T04:43:06;18.45;;;2.47;;
41309;SDS011;27057;51.438;-0.010;2023-09-19T04:45:34;13.85;;;2.47;;
41309;SDS011;27057;51.438;-0.010;2023-09-19T04:48:01;18.25;;;3.17;;
41309;SDS011;27057;51.438;-0.010;2023-09-19T04:50:29;25.30;;;3.40;;
41309;SDS011;27057;51.438;-0.010;2023-09-19T04:52:57;22.65;;;2.97;;
41309;SDS011;27057;51.438;-0.010;2023-09-19T04:55:24;22.20;;;3.50;;
41309;SDS011;27057;51.438;-0.010;2023-09-19T04:57:51;20.95;;;3.10;;
41309;SDS011;27057;51.438;-0.010;2023-09-19T05:00:22;29.70;;;3.63;;
41309;SDS011;27057;51.438;-0.010;2023-09-19T05:02:51;19.83;;;4.05;;
41309;SDS011;27057;51.438;-0.010;2023-09-19T05:05:18;33.35;;;3.30;;
41309;SDS011;27057;51.438;-0.010;2023-09-19T05:07:46;16.58;;;2.30;;
41309;SDS011;27057;51.438;-0.010;2023-09-19T05:10:14;20.10;;;3.40;;
41309;SDS011;27057;51.438;-0.010;2023-09-19T05:12:42;23.23;;;2.83;;
41309;SDS011;27057;51.438;-0.010;2023-09-19T05:15:13;22.60;;;3.00;;
41309;SDS011;27057;51.438;-0.010;2023-09-19T05:17:41;23.00;;;2.60;;
41309;SDS011;27057;51.438;-0.010;2023-09-19T05:20:14;21.45;;;3.42;;
41309;SDS011;27057;51.438;-0.010;2023-09-19T05:23:01;16.45;;;3.03;;
41309;SDS011;27057;51.438;-0.010;2023-09-19T05:25:31;25.98;;;2.72;;
41309;SDS011;27057;51.438;-0.010;2023-09-19T05:27:59;36.35;;;3.60;;
41309;SDS011;27057;51.438;-0.010;2023-09-19T05:30:31;17.00;;;3.17;;
41309;SDS011;27057;51.438;-0.010;2023-09-19T05:32:59;27.83;;;3.13;;
41309;SDS011;27057;51.438;-0.010;2023-09-19T05:35:26;28.65;;;3.92;;
41309;SDS011;27057;51.438;-0.010;2023-09-19T05:37:54;28.00;;;3.83;;
41309;SDS011;27057;51.438;-0.010;2023-09-19T05:40:22;29.38;;;2.80;;
41309;SDS011;27057;51.438;-0.010;2023-09-19T05:42:51;24.42;;;2.97;;
41309;SDS011;27057;51.438;-0.010;2023-09-19T05:45:18;28.92;;;3.63;;
41309;SDS011;27057;51.438;-0.010;2023-09-19T05:47:49;36.67;;;4.47;;
41309;SDS011;27057;51.438;-0.010;2023-09-19T05:50:18;16.55;;;2.90;;
41309;SDS011;27057;51.438;-0.010;2023-09-19T05:52:53;18.30;;;2.63;;
41309;SDS011;27057;51.438;-0.010;2023-09-19T05:55:22;23.42;;;3.50;;
41309;SDS011;27057;51.438;-0.010;2023-09-19T05:57:53;17.17;;;2.67;;
41309;SDS011;27057;51.438;-0.010;2023-09-19T06:00:21;16.17;;;3.55;;
41309;SDS011;27057;51.438;-0.010;2023-09-19T06:02:56;28.60;;;3.05;;
41309;SDS011;27057;51.438;-0.010;2023-09-19T06:05:25;18.77;;;2.47;;
41309;SDS011;27057;51.438;-0.010;2023-09-19T06:07:54;24.33;;;2.17;;
41309;SDS011;27057;51.438;-0.010;2023-09-19T06:10:22;23.83;;;2.88;;
41309;SDS011;27057;51.438;-0.010;2023-09-19T06:12:50;18.83;;;3.65;;
41309;SDS011;27057;51.438;-0.010;2023-09-19T06:15:17;17.80;;;2.03;;
41309;SDS011;27057;51.438;-0.010;2023-09-19T06:17:50;20.48;;;1.92;;
41309;SDS011;27057;51.438;-0.010;2023-09-19T06:20:23;21.95;;;2.38;;
41309;SDS011;27057;51.438;-0.010;2023-09-19T06:22:52;17.42;;;2.35;;
41309;SDS011;27057;51.438;-0.010;2023-09-19T06:25:20;20.27;;;3.00;;
41309;SDS011;27057;51.438;-0.010;2023-09-19T06:27:50;11.30;;;1.75;;
41309;SDS011;27057;51.438;-0.010;2023-09-19T06:30:23;12.27;;;1.77;;
41309;SDS011;27057;51.438;-0.010;2023-09-19T06:32:56;12.63;;;1.80;;
41309;SDS011;27057;51.438;-0.010;2023-09-19T06:35:24;21.70;;;2.33;;
41309;SDS011;27057;51.438;-0.010;2023-09-19T06:37:56;13.30;;;2.05;;
41309;SDS011;27057;51.438;-0.010;2023-09-19T06:40:25;18.85;;;1.95;;
41309;SDS011;27057;51.438;-0.010;2023-09-19T06:42:53;12.40;;;1.90;;
41309;SDS011;27057;51.438;-0.010;2023-09-19T06:45:21;18.88;;;3.00;;
41309;SDS011;27057;51.438;-0.010;2023-09-19T06:47:49;23.17;;;5.47;;
41309;SDS011;27057;51.438;-0.010;2023-09-19T06:50:19;22.45;;;2.70;;
41309;SDS011;27057;51.438;-0.010;2023-09-19T06:52:49;17.98;;;2.38;;
41309;SDS011;27057;51.438;-0.010;2023-09-19T06:55:19;15.13;;;1.73;;
41309;SDS011;27057;51.438;-0.010;2023-09-19T06:57:47;4.00;;;0.95;;
41309;SDS011;27057;51.438;-0.010;2023-09-19T07:00:15;12.60;;;2.03;;
41309;SDS011;27057;51.438;-0.010;2023-09-19T07:02:55;21.95;;;2.13;;
41309;SDS011;27057;51.438;-0.010;2023-09-19T07:05:29;14.50;;;2.42;;
41309;SDS011;27057;51.438;-0.010;2023-09-19T07:07:58;8.23;;;2.20;;
41309;SDS011;27057;51.438;-0.010;2023-09-19T07:10:28;20.27;;;2.53;;
41309;SDS011;27057;51.438;-0.010;2023-09-19T07:12:59;8.90;;;2.85;;
41309;SDS011;27057;51.438;-0.010;2023-09-19T07:15:28;14.77;;;2.22;;
41309;SDS011;27057;51.438;-0.010;2023-09-19T07:18:00;8.20;;;1.63;;
41309;SDS011;27057;51.438;-0.010;2023-09-19T07:20:28;14.25;;;2.15;;
41309;SDS011;27057;51.438;-0.010;2023-09-19T07:22:59;19.67;;;2.47;;
41309;SDS011;27057;51.438;-0.010;2023-09-19T07:25:27;24.02;;;2.70;;
41309;SDS011;27057;51.438;-0.010;2023-09-19T07:27:55;11.90;;;2.70;;
41309;SDS011;27057;51.438;-0.010;2023-09-19T07:30:23;15.95;;;2.10;;
41309;SDS011;27057;51.438;-0.010;2023-09-19T07:32:54;7.88;;;2.40;;
41309;SDS011;27057;51.438;-0.010;2023-09-19T07:35:21;17.42;;;2.00;;
41309;SDS011;27057;51.438;-0.010;2023-09-19T07:37:49;17.25;;;1.92;;
41309;SDS011;27057;51.438;-0.010;2023-09-19T07:40:18;6.82;;;1.90;;
41309;SDS011;27057;51.438;-0.010;2023-09-19T07:42:48;27.70;;;2.58;;
41309;SDS011;27057;51.438;-0.010;2023-09-19T07:45:16;7.47;;;1.80;;
41309;SDS011;27057;51.438;-0.010;2023-09-19T07:47:44;10.52;;;1.75;;
41309;SDS011;27057;51.438;-0.010;2023-09-19T07:50:13;15.02;;;2.33;;
41309;SDS011;27057;51.438;-0.010;2023-09-19T07:52:43;12.23;;;2.25;;
41309;SDS011;27057;51.438;-0.010;2023-09-19T07:55:10;7.43;;;1.67;;
41309;SDS011;27057;51.438;-0.010;2023-09-19T07:57:38;19.80;;;2.15;;
41309;SDS011;27057;51.438;-0.010;2023-09-19T08:00:08;12.98;;;2.15;;
41309;SDS011;27057;51.438;-0.010;2023-09-19T08:02:40;12.70;;;3.20;;
41309;SDS011;27057;51.438;-0.010;2023-09-19T08:05:08;10.48;;;1.75;;
41309;SDS011;27057;51.438;-0.010;2023-09-19T08:07:38;12.77;;;2.00;;
41309;SDS011;27057;51.438;-0.010;2023-09-19T08:10:07;14.07;;;2.40;;
41309;SDS011;27057;51.438;-0.010;2023-09-19T08:12:35;10.48;;;2.20;;
41309;SDS011;27057;51.438;-0.010;2023-09-19T08:15:03;17.13;;;2.78;;
41309;SDS011;27057;51.438;-0.010;2023-09-19T08:17:35;16.50;;;2.33;;
41309;SDS011;27057;51.438;-0.010;2023-09-19T08:20:02;9.13;;;1.77;;
41309;SDS011;27057;51.438;-0.010;2023-09-19T08:22:32;12.20;;;3.08;;
41309;SDS011;27057;51.438;-0.010;2023-09-19T08:24:59;18.02;;;3.80;;
41309;SDS011;27057;51.438;-0.010;2023-09-19T08:27:28;23.00;;;3.67;;
41309;SDS011;27057;51.438;-0.010;2023-09-19T08:29:55;31.77;;;3.90;;
41309;SDS011;27057;51.438;-0.010;2023-09-19T08:32:23;12.38;;;2.67;;
41309;SDS011;27057;51.438;-0.010;2023-09-19T08:34:53;13.90;;;4.13;;
41309;SDS011;27057;51.438;-0.010;2023-09-19T08:37:20;14.75;;;2.53;;
41309;SDS011;27057;51.438;-0.010;2023-09-19T08:39:48;18.88;;;3.38;;
41309;SDS011;27057;51.438;-0.010;2023-09-19T08:42:15;15.55;;;2.70;;
41309;SDS011;27057;51.438;-0.010;2023-09-19T08:44:44;14.27;;;3.28;;
41309;SDS011;27057;51.438;-0.010;2023-09-19T08:47:15;19.63;;;3.67;;
41309;SDS011;27057;51.438;-0.010;2023-09-19T08:49:55;24.08;;;3.70;;
41309;SDS011;27057;51.438;-0.010;2023-09-19T08:52:41;30.23;;;4.32;;
41309;SDS011;27057;51.438;-0.010;2023-09-19T08:55:13;27.35;;;3.20;;
41309;SDS011;27057;51.438;-0.010;2023-09-19T08:57:49;34.80;;;6.68;;
41309;SDS011;27057;51.438;-0.010;2023-09-19T09:00:16;32.35;;;5.43;;
41309;SDS011;27057;51.438;-0.010;2023-09-19T09:02:45;19.38;;;3.50;;
41309;SDS011;27057;51.438;-0.010;2023-09-19T09:05:14;35.55;;;6.55;;
41309;SDS011;27057;51.438;-0.010;2023-09-19T09:07:43;8.88;;;2.75;;
41309;SDS011;27057;51.438;-0.010;2023-09-19T09:10:11;28.73;;;5.40;;
41309;SDS011;27057;51.438;-0.010;2023-09-19T09:12:38;27.40;;;4.55;;
41309;SDS011;27057;51.438;-0.010;2023-09-19T09:15:07;40.45;;;5.53;;
41309;SDS011;27057;51.438;-0.010;2023-09-19T09:17:38;12.80;;;2.65;;
41309;SDS011;27057;51.438;-0.010;2023-09-19T09:20:06;30.25;;;4.32;;
41309;SDS011;27057;51.438;-0.010;2023-09-19T09:22:35;25.17;;;4.68;;
41309;SDS011;27057;51.438;-0.010;2023-09-19T09:25:06;27.77;;;5.13;;
41309;SDS011;27057;51.438;-0.010;2023-09-19T09:27:35;31.60;;;4.72;;
41309;SDS011;27057;51.438;-0.010;2023-09-19T09:30:02;25.08;;;4.05;;
41309;SDS011;27057;51.438;-0.010;2023-09-19T09:32:30;30.95;;;4.82;;
41309;SDS011;27057;51.438;-0.010;2023-09-19T09:35:07;28.67;;;4.35;;
41309;SDS011;27057;51.438;-0.010;2023-09-19T09:37:37;36.67;;;4.18;;
41309;SDS011;27057;51.438;-0.010;2023-09-19T09:40:05;27.38;;;4.00;;
41309;SDS011;27057;51.438;-0.010;2023-09-19T09:42:39;32.88;;;4.65;;
41309;SDS011;27057;51.438;-0.010;2023-09-19T09:45:17;35.60;;;5.28;;
41309;SDS011;27057;51.438;-0.010;2023-09-19T09:48:01;44.00;;;5.40;;
41309;SDS011;27057;51.438;-0.010;2023-09-19T09:50:48;23.95;;;4.28;;
41309;SDS011;27057;51.438;-0.010;2023-09-19T09:58:26;17.38;;;3.83;;
41309;SDS011;27057;51.438;-0.010;2023-09-19T10:00:59;22.17;;;3.50;;
41309;SDS011;27057;51.438;-0.010;2023-09-19T10:03:33;30.35;;;5.13;;
41309;SDS011;27057;51.438;-0.010;2023-09-19T10:06:11;32.67;;;5.80;;
41309;SDS011;27057;51.438;-0.010;2023-09-19T10:11:41;28.95;;;5.82;;
41309;SDS011;27057;51.438;-0.010;2023-09-19T10:14:16;28.90;;;5.28;;
41309;SDS011;27057;51.438;-0.010;2023-09-19T10:16:46;30.98;;;5.13;;
41309;SDS011;27057;51.438;-0.010;2023-09-19T10:19:16;29.42;;;5.55;;
41309;SDS011;27057;51.438;-0.010;2023-09-19T10:21:53;32.03;;;6.17;;
41309;SDS011;27057;51.438;-0.010;2023-09-19T10:24:23;20.10;;;4.93;;
41309;SDS011;27057;51.438;-0.010;2023-09-19T10:26:53;17.40;;;2.85;;
41309;SDS011;27057;51.438;-0.010;2023-09-19T10:29:21;24.40;;;4.82;;
41309;SDS011;27057;51.438;-0.010;2023-09-19T10:31:56;32.25;;;6.50;;
41309;SDS011;27057;51.438;-0.010;2023-09-19T10:34:27;23.85;;;5.18;;
41309;SDS011;27057;51.438;-0.010;2023-09-19T10:36:57;34.47;;;6.32;;
41309;SDS011;27057;51.438;-0.010;2023-09-19T10:39:25;33.10;;;6.00;;
41309;SDS011;27057;51.438;-0.010;2023-09-19T10:41:53;21.40;;;4.70;;
41309;SDS011;27057;51.438;-0.010;2023-09-19T10:44:26;30.95;;;5.88;;
41309;SDS011;27057;51.438;-0.010;2023-09-19T10:46:55;41.08;;;7.70;;
41309;SDS011;27057;51.438;-0.010;2023-09-19T10:49:24;35.47;;;7.00;;
41309;SDS011;27057;51.438;-0.010;2023-09-19T10:51:53;42.65;;;7.25;;
41309;SDS011;27057;51.438;-0.010;2023-09-19T10:54:26;20.98;;;4.32;;
41309;SDS011;27057;51.438;-0.010;2023-09-19T10:57:00;34.10;;;6.65;;
41309;SDS011;27057;51.438;-0.010;2023-09-19T10:59:32;31.05;;;5.57;;
41309;SDS011;27057;51.438;-0.010;2023-09-19T11:02:17;34.63;;;5.95;;
41309;SDS011;27057;51.438;-0.010;2023-09-19T11:04:45;36.65;;;5.63;;
41309;SDS011;27057;51.438;-0.010;2023-09-19T11:07:15;25.65;;;4.20;;
41309;SDS011;27057;51.438;-0.010;2023-09-19T11:12:10;9.73;;;2.90;;
41309;SDS011;27057;51.438;-0.010;2023-09-19T11:14:38;13.85;;;3.25;;
41309;SDS011;27057;51.438;-0.010;2023-09-19T11:30:36;27.45;;;5.88;;
41309;SDS011;27057;51.438;-0.010;2023-09-19T11:33:15;17.70;;;4.03;;
41309;SDS011;27057;51.438;-0.010;2023-09-19T11:36:07;21.88;;;4.80;;
41309;SDS011;27057;51.438;-0.010;2023-09-19T11:43:52;24.17;;;4.85;;
41309;SDS011;27057;51.438;-0.010;2023-09-19T11:46:32;19.67;;;4.88;;
41309;SDS011;27057;51.438;-0.010;2023-09-19T11:49:07;12.48;;;3.85;;
41309;SDS011;27057;51.438;-0.010;2023-09-19T11:51:43;36.30;;;5.03;;
41309;SDS011;27057;51.438;-0.010;2023-09-19T11:54:11;27.13;;;6.30;;
41309;SDS011;27057;51.438;-0.010;2023-09-19T11:56:45;25.05;;;4.82;;
41309;SDS011;27057;51.438;-0.010;2023-09-19T11:59:20;19.27;;;3.97;;
41309;SDS011;27057;51.438;-0.010;2023-09-19T12:01:52;19.75;;;3.83;;
41309;SDS011;27057;51.438;-0.010;2023-09-19T12:04:38;15.38;;;3.13;;
41309;SDS011;27057;51.438;-0.010;2023-09-19T12:07:13;13.63;;;2.45;;
41309;SDS011;27057;51.438;-0.010;2023-09-19T12:09:47;14.07;;;3.00;;
41309;SDS011;27057;51.438;-0.010;2023-09-19T12:14:47;21.52;;;3.40;;
41309;SDS011;27057;51.438;-0.010;2023-09-19T12:17:18;11.30;;;3.08;;
41309;SDS011;27057;51.438;-0.010;2023-09-19T12:19:53;14.85;;;3.92;;
41309;SDS011;27057;51.438;-0.010;2023-09-19T12:22:22;16.23;;;3.42;;
41309;SDS011;27057;51.438;-0.010;2023-09-19T12:24:50;17.75;;;3.05;;
41309;SDS011;27057;51.438;-0.010;2023-09-19T12:27:17;22.38;;;3.53;;
41309;SDS011;27057;51.438;-0.010;2023-09-19T12:29:46;20.80;;;4.70;;
41309;SDS011;27057;51.438;-0.010;2023-09-19T12:32:34;12.18;;;3.58;;
41309;SDS011;27057;51.438;-0.010;2023-09-19T12:35:02;20.27;;;4.53;;
41309;SDS011;27057;51.438;-0.010;2023-09-19T12:37:34;12.88;;;3.42;;
41309;SDS011;27057;51.438;-0.010;2023-09-19T12:40:04;13.10;;;3.22;;
41309;SDS011;27057;51.438;-0.010;2023-09-19T12:42:45;13.48;;;3.83;;
41309;SDS011;27057;51.438;-0.010;2023-09-19T12:45:13;15.57;;;3.47;;
41309;SDS011;27057;51.438;-0.010;2023-09-19T12:53:37;17.27;;;3.20;;
41309;SDS011;27057;51.438;-0.010;2023-09-19T12:56:11;19.02;;;4.10;;
41309;SDS011;27057;51.438;-0.010;2023-09-19T13:01:42;29.65;;;4.90;;
41309;SDS011;27057;51.438;-0.010;2023-09-19T13:06:53;14.82;;;3.58;;
41309;SDS011;27057;51.438;-0.010;2023-09-19T13:09:22;16.48;;;4.43;;
41309;SDS011;27057;51.438;-0.010;2023-09-19T13:12:00;21.25;;;4.20;;
41309;SDS011;27057;51.438;-0.010;2023-09-19T13:14:29;21.48;;;3.88;;
41309;SDS011;27057;51.438;-0.010;2023-09-19T13:17:07;19.23;;;4.00;;
41309;SDS011;27057;51.438;-0.010;2023-09-19T13:19:47;20.40;;;4.20;;
41309;SDS011;27057;51.438;-0.010;2023-09-19T13:25:04;15.07;;;3.95;;
41309;SDS011;27057;51.438;-0.010;2023-09-19T13:27:33;21.90;;;5.50;;
41309;SDS011;27057;51.438;-0.010;2023-09-19T13:30:01;28.80;;;5.90;;
41309;SDS011;27057;51.438;-0.010;2023-09-19T13:32:28;29.40;;;5.38;;
41309;SDS011;27057;51.438;-0.010;2023-09-19T13:34:56;17.33;;;3.20;;
41309;SDS011;27057;51.438;-0.010;2023-09-19T13:37:24;21.75;;;4.32;;
41309;SDS011;27057;51.438;-0.010;2023-09-19T13:39:53;19.70;;;3.65;;
41309;SDS011;27057;51.438;-0.010;2023-09-19T13:42:20;19.63;;;3.83;;
41309;SDS011;27057;51.438;-0.010;2023-09-19T13:44:48;26.02;;;4.43;;
41309;SDS011;27057;51.438;-0.010;2023-09-19T13:47:15;13.00;;;4.50;;
41309;SDS011;27057;51.438;-0.010;2023-09-19T13:49:43;14.52;;;3.53;;
41309;SDS011;27057;51.438;-0.010;2023-09-19T13:52:11;15.88;;;3.45;;
41309;SDS011;27057;51.438;-0.010;2023-09-19T13:54:39;12.63;;;3.55;;
41309;SDS011;27057;51.438;-0.010;2023-09-19T13:57:08;10.07;;;2.60;;
41309;SDS011;27057;51.438;-0.010;2023-09-19T13:59:37;26.95;;;4.85;;
41309;SDS011;27057;51.438;-0.010;2023-09-19T14:02:04;21.58;;;3.88;;
41309;SDS011;27057;51.438;-0.010;2023-09-19T14:04:33;20.58;;;4.15;;
41309;SDS011;27057;51.438;-0.010;2023-09-19T14:07:01;19.60;;;3.50;;
41309;SDS011;27057;51.438;-0.010;2023-09-19T14:09:30;13.32;;;3.65;;
41309;SDS011;27057;51.438;-0.010;2023-09-19T14:11:57;20.67;;;3.60;;
41309;SDS011;27057;51.438;-0.010;2023-09-19T14:14:27;8.90;;;3.35;;
41309;SDS011;27057;51.438;-0.010;2023-09-19T14:16:54;11.45;;;3.53;;
41309;SDS011;27057;51.438;-0.010;2023-09-19T14:19:22;11.65;;;2.97;;
41309;SDS011;27057;51.438;-0.010;2023-09-19T14:21:50;7.55;;;2.83;;
41309;SDS011;27057;51.438;-0.010;2023-09-19T14:24:18;17.42;;;3.45;;
41309;SDS011;27057;51.438;-0.010;2023-09-19T14:26:45;15.38;;;3.63;;
41309;SDS011;27057;51.438;-0.010;2023-09-19T14:29:13;16.23;;;3.83;;
41309;SDS011;27057;51.438;-0.010;2023-09-19T14:31:41;9.18;;;2.58;;
41309;SDS011;27057;51.438;-0.010;2023-09-19T14:34:09;12.50;;;2.55;;
41309;SDS011;27057;51.438;-0.010;2023-09-19T14:36:37;14.98;;;3.05;;
41309;SDS011;27057;51.438;-0.010;2023-09-19T14:39:07;12.02;;;2.97;;
41309;SDS011;27057;51.438;-0.010;2023-09-19T14:41:35;20.45;;;3.35;;
41309;SDS011;27057;51.438;-0.010;2023-09-19T14:44:02;7.97;;;2.35;;
41309;SDS011;27057;51.438;-0.010;2023-09-19T14:46:31;6.80;;;2.10;;
41309;SDS011;27057;51.438;-0.010;2023-09-19T14:48:59;14.05;;;3.17;;
41309;SDS011;27057;51.438;-0.010;2023-09-19T14:51:29;9.30;;;2.20;;
41309;SDS011;27057;51.438;-0.010;2023-09-19T14:53:57;9.00;;;2.33;;
41309;SDS011;27057;51.438;-0.010;2023-09-19T14:56:24;16.10;;;3.05;;
41309;SDS011;27057;51.438;-0.010;2023-09-19T14:58:52;10.13;;;3.08;;
41309;SDS011;27057;51.438;-0.010;2023-09-19T15:01:19;9.07;;;2.65;;
41309;SDS011;27057;51.438;-0.010;2023-09-19T15:03:47;13.00;;;3.90;;
41309;SDS011;27057;51.438;-0.010;2023-09-19T15:06:16;15.95;;;2.85;;
41309;SDS011;27057;51.438;-0.010;2023-09-19T15:08:46;16.15;;;2.55;;
41309;SDS011;27057;51.438;-0.010;2023-09-19T15:11:15;15.70;;;2.17;;
41309;SDS011;27057;51.438;-0.010;2023-09-19T15:13:47;10.15;;;2.30;;
41309;SDS011;27057;51.438;-0.010;2023-09-19T15:16:17;11.32;;;2.65;;
41309;SDS011;27057;51.438;-0.010;2023-09-19T15:18:45;16.75;;;2.08;;
41309;SDS011;27057;51.438;-0.010;2023-09-19T15:21:14;22.52;;;3.05;;
41309;SDS011;27057;51.438;-0.010;2023-09-19T15:23:42;19.00;;;3.33;;
41309;SDS011;27057;51.438;-0.010;2023-09-19T15:26:11;6.45;;;1.85;;
41309;SDS011;27057;51.438;-0.010;2023-09-19T15:28:40;15.73;;;2.53;;
41309;SDS011;27057;51.438;-0.010;2023-09-19T15:31:10;11.00;;;2.95;;
41309;SDS011;27057;51.438;-0.010;2023-09-19T15:33:39;12.80;;;1.65;;
41309;SDS011;27057;51.438;-0.010;2023-09-19T15:36:07;13.80;;;1.83;;
41309;SDS011;27057;51.438;-0.010;2023-09-19T15:41:27;28.55;;;3.45;;
41309;SDS011;27057;51.438;-0.010;2023-09-19T15:43:57;20.00;;;2.70;;
41309;SDS011;27057;51.438;-0.010;2023-09-19T15:46:29;9.80;;;2.08;;